createdAt,value
2016-09-27T00:00:42.405Z,0
2016-09-27T00:01:42.379Z,0
2016-09-27T00:02:42.266Z,0
2016-09-27T00:03:42.043Z,0
2016-09-27T00:04:42.043Z,0
2016-09-27T00:05:42.025Z,0
2016-09-27T00:06:42.011Z,0
2016-09-27T00:07:42.005Z,0
2016-09-27T00:08:42.000Z,0
2016-09-27T00:09:41.978Z,0
2016-09-27T00:10:41.967Z,0
2016-09-27T00:11:41.951Z,0
2016-09-27T00:12:41.942Z,0
2016-09-27T00:13:42.245Z,0
2016-09-27T00:14:41.926Z,0
2016-09-27T00:15:41.903Z,0
2016-09-27T00:16:41.887Z,0
2016-09-27T00:17:41.884Z,0
2016-09-27T00:18:41.867Z,0
2016-09-27T00:19:41.862Z,0
2016-09-27T00:20:42.166Z,0
2016-09-27T00:21:42.151Z,0
2016-09-27T00:22:42.779Z,0
2016-09-27T00:23:41.813Z,0
2016-09-27T00:24:41.812Z,0
2016-09-27T00:25:41.797Z,0
2016-09-27T00:26:42.093Z,0
2016-09-27T00:27:41.760Z,0
2016-09-27T00:28:41.768Z,0
2016-09-27T00:29:42.047Z,0
2016-09-27T00:30:41.726Z,0
2016-09-27T00:31:42.035Z,0
2016-09-27T00:32:41.707Z,0
2016-09-27T00:33:42.322Z,0
2016-09-27T00:34:41.676Z,0
2016-09-27T00:35:41.668Z,0
2016-09-27T00:36:41.656Z,0
2016-09-27T00:37:41.638Z,0
2016-09-27T00:38:41.626Z,0
2016-09-27T00:39:41.668Z,0
2016-09-27T00:40:41.920Z,0
2016-09-27T00:41:41.958Z,0
2016-09-27T00:42:41.624Z,0
2016-09-27T00:43:41.881Z,0
2016-09-27T00:44:41.556Z,0
2016-09-27T00:45:41.944Z,0
2016-09-27T00:46:41.843Z,0
2016-09-27T00:47:41.520Z,0
2016-09-27T00:48:41.828Z,0
2016-09-27T00:49:41.493Z,0
2016-09-27T00:50:42.102Z,0
2016-09-27T00:51:41.797Z,0
2016-09-27T00:52:41.459Z,0
2016-09-27T00:53:41.809Z,0
2016-09-27T00:54:41.436Z,0
2016-09-27T00:55:41.418Z,0
2016-09-27T00:56:41.722Z,0
2016-09-27T00:57:41.401Z,0
2016-09-27T00:58:41.377Z,0
2016-09-27T00:59:41.372Z,0
2016-09-27T01:00:41.670Z,0
2016-09-27T01:01:41.659Z,0
2016-09-27T01:02:41.332Z,0
2016-09-27T01:03:41.315Z,0
2016-09-27T01:04:41.317Z,0
2016-09-27T01:05:41.296Z,0
2016-09-27T01:06:41.992Z,0
2016-09-27T01:07:41.612Z,0
2016-09-27T01:08:41.600Z,0
2016-09-27T01:09:41.640Z,0
2016-09-27T01:10:41.234Z,0
2016-09-27T01:11:41.221Z,0
2016-09-27T01:12:41.528Z,0
2016-09-27T01:13:41.206Z,0
2016-09-27T01:14:41.510Z,0
2016-09-27T01:15:41.204Z,0
2016-09-27T01:16:41.157Z,0
2016-09-27T01:17:41.156Z,0
2016-09-27T01:18:41.154Z,0
2016-09-27T01:19:41.751Z,0
2016-09-27T01:20:41.446Z,0
2016-09-27T01:21:41.101Z,0
2016-09-27T01:22:41.093Z,0
2016-09-27T01:23:41.389Z,0
2016-09-27T01:24:41.061Z,0
2016-09-27T01:25:41.367Z,0
2016-09-27T01:26:41.037Z,0
2016-09-27T01:27:41.344Z,0
2016-09-27T01:28:41.327Z,0
2016-09-27T01:29:40.999Z,0
2016-09-27T01:30:40.987Z,0
2016-09-27T01:31:40.975Z,0
2016-09-27T01:32:40.981Z,0
2016-09-27T01:33:40.953Z,0
2016-09-27T01:34:41.257Z,0
2016-09-27T01:35:41.241Z,0
2016-09-27T01:36:40.938Z,0
2016-09-27T01:37:40.903Z,0
2016-09-27T01:38:40.889Z,0
2016-09-27T01:39:40.886Z,0
2016-09-27T01:40:41.230Z,0
2016-09-27T01:41:40.849Z,0
2016-09-27T01:42:40.843Z,0
2016-09-27T01:43:40.824Z,0
2016-09-27T01:44:40.818Z,0
2016-09-27T01:45:40.799Z,0
2016-09-27T01:46:41.103Z,0
2016-09-27T01:47:40.779Z,0
2016-09-27T01:48:40.759Z,0
2016-09-27T01:49:40.751Z,0
2016-09-27T01:50:41.364Z,0
2016-09-27T01:51:41.039Z,0
2016-09-27T01:52:41.038Z,0
2016-09-27T01:53:41.007Z,0
2016-09-27T01:54:40.696Z,0
2016-09-27T01:55:41.006Z,0
2016-09-27T01:56:40.659Z,0
2016-09-27T01:57:40.656Z,0
2016-09-27T01:58:40.636Z,0
2016-09-27T01:59:40.939Z,0
2016-09-27T02:00:40.615Z,0
2016-09-27T02:01:40.915Z,0
2016-09-27T02:02:40.906Z,0
2016-09-27T02:03:40.895Z,0
2016-09-27T02:04:40.876Z,0
2016-09-27T02:05:40.558Z,0
2016-09-27T02:06:40.542Z,0
2016-09-27T02:07:40.537Z,0
2016-09-27T02:08:40.547Z,0
2016-09-27T02:09:40.495Z,0
2016-09-27T02:10:40.806Z,0
2016-09-27T02:11:40.471Z,0
2016-09-27T02:12:40.524Z,0
2016-09-27T02:13:40.447Z,0
2016-09-27T02:14:40.429Z,0
2016-09-27T02:15:40.736Z,0
2016-09-27T02:16:40.416Z,0
2016-09-27T02:17:40.397Z,0
2016-09-27T02:18:40.409Z,0
2016-09-27T02:19:40.372Z,0
2016-09-27T02:20:40.379Z,0
2016-09-27T02:21:40.710Z,0
2016-09-27T02:22:40.335Z,0
2016-09-27T02:23:40.634Z,0
2016-09-27T02:24:40.320Z,0
2016-09-27T02:25:40.319Z,0
2016-09-27T02:26:40.286Z,0
2016-09-27T02:27:40.584Z,0
2016-09-27T02:28:40.572Z,0
2016-09-27T02:29:40.243Z,0
2016-09-27T02:30:40.869Z,0
2016-09-27T02:31:40.225Z,0
2016-09-27T02:32:40.208Z,0
2016-09-27T02:33:40.205Z,0
2016-09-27T02:34:40.496Z,0
2016-09-27T02:35:40.168Z,0
2016-09-27T02:36:40.159Z,0
2016-09-27T02:37:40.140Z,0
2016-09-27T02:38:40.130Z,0
2016-09-27T02:39:40.129Z,0
2016-09-27T02:40:40.728Z,0
2016-09-27T02:41:40.401Z,0
2016-09-27T02:42:40.073Z,0
2016-09-27T02:43:40.065Z,0
2016-09-27T02:44:40.050Z,0
2016-09-27T02:45:40.347Z,0
2016-09-27T02:46:40.649Z,0
2016-09-27T02:47:40.325Z,0
2016-09-27T02:48:40.025Z,0
2016-09-27T02:49:39.989Z,0
2016-09-27T02:50:40.295Z,0
2016-09-27T02:51:40.280Z,0
2016-09-27T02:52:39.950Z,0
2016-09-27T02:53:40.320Z,0
2016-09-27T02:54:39.931Z,0
2016-09-27T02:55:39.910Z,0
2016-09-27T02:56:39.894Z,0
2016-09-27T02:57:39.882Z,0
2016-09-27T02:58:39.871Z,0
2016-09-27T02:59:39.849Z,0
2016-09-27T03:00:39.843Z,0
2016-09-27T03:01:39.828Z,0
2016-09-27T03:02:39.814Z,0
2016-09-27T03:03:40.106Z,0
2016-09-27T03:04:39.797Z,0
2016-09-27T03:05:40.127Z,0
2016-09-27T03:06:40.074Z,0
2016-09-27T03:07:39.776Z,0
2016-09-27T03:08:39.740Z,0
2016-09-27T03:09:39.723Z,0
2016-09-27T03:10:40.383Z,0
2016-09-27T03:11:40.021Z,0
2016-09-27T03:12:39.691Z,0
2016-09-27T03:13:39.991Z,0
2016-09-27T03:14:39.981Z,0
2016-09-27T03:15:39.656Z,0
2016-09-27T03:16:39.635Z,0
2016-09-27T03:17:39.618Z,0
2016-09-27T03:18:39.610Z,0
2016-09-27T03:19:39.617Z,0
2016-09-27T03:20:39.580Z,0
2016-09-27T03:21:39.569Z,0
2016-09-27T03:22:39.565Z,0
2016-09-27T03:23:39.540Z,0
2016-09-27T03:24:39.533Z,0
2016-09-27T03:25:40.135Z,0
2016-09-27T03:26:39.823Z,0
2016-09-27T03:27:39.492Z,0
2016-09-27T03:28:40.108Z,0
2016-09-27T03:29:39.467Z,0
2016-09-27T03:30:40.080Z,0
2016-09-27T03:31:39.754Z,0
2016-09-27T03:32:39.737Z,0
2016-09-27T03:33:39.409Z,0
2016-09-27T03:34:40.077Z,0
2016-09-27T03:35:40.021Z,0
2016-09-27T03:36:39.387Z,0
2016-09-27T03:37:39.689Z,0
2016-09-27T03:38:39.981Z,0
2016-09-27T03:39:39.650Z,0
2016-09-27T03:40:39.952Z,0
2016-09-27T03:41:39.620Z,0
2016-09-27T03:42:39.610Z,0
2016-09-27T03:43:39.596Z,0
2016-09-27T03:44:39.590Z,0
2016-09-27T03:45:39.256Z,0
2016-09-27T03:46:39.562Z,0
2016-09-27T03:47:39.225Z,0
2016-09-27T03:48:39.217Z,0
2016-09-27T03:49:39.210Z,0
2016-09-27T03:50:39.520Z,0
2016-09-27T03:51:39.181Z,0
2016-09-27T03:52:39.170Z,0
2016-09-27T03:53:39.163Z,0
2016-09-27T03:54:39.450Z,0
2016-09-27T03:55:39.441Z,0
2016-09-27T03:56:39.117Z,0
2016-09-27T03:57:39.435Z,0
2016-09-27T03:58:39.093Z,0
2016-09-27T03:59:39.404Z,0
2016-09-27T04:00:39.374Z,0
2016-09-27T04:01:39.049Z,0
2016-09-27T04:02:39.671Z,0
2016-09-27T04:03:39.338Z,0
2016-09-27T04:04:39.331Z,0
2016-09-27T04:05:38.997Z,0
2016-09-27T04:06:39.321Z,0
2016-09-27T04:07:39.285Z,0
2016-09-27T04:08:38.954Z,0
2016-09-27T04:09:39.259Z,0
2016-09-27T04:10:38.941Z,0
2016-09-27T04:11:38.923Z,0
2016-09-27T04:12:38.911Z,0
2016-09-27T04:13:38.900Z,0
2016-09-27T04:14:38.880Z,0
2016-09-27T04:15:39.200Z,0
2016-09-27T04:16:38.861Z,0
2016-09-27T04:17:38.891Z,0
2016-09-27T04:18:38.831Z,0
2016-09-27T04:19:38.815Z,0
2016-09-27T04:20:38.804Z,0
2016-09-27T04:21:39.108Z,0
2016-09-27T04:22:38.769Z,0
2016-09-27T04:23:38.772Z,0
2016-09-27T04:24:39.062Z,0
2016-09-27T04:25:38.728Z,0
2016-09-27T04:26:38.723Z,0
2016-09-27T04:27:38.713Z,0
2016-09-27T04:28:38.701Z,0
2016-09-27T04:29:38.684Z,0
2016-09-27T04:30:38.666Z,0
2016-09-27T04:31:38.657Z,0
2016-09-27T04:32:38.961Z,0
2016-09-27T04:33:38.637Z,0
2016-09-27T04:34:38.944Z,0
2016-09-27T04:35:38.611Z,0
2016-09-27T04:36:38.593Z,0
2016-09-27T04:37:38.577Z,0
2016-09-27T04:38:38.875Z,0
2016-09-27T04:39:38.553Z,0
2016-09-27T04:40:38.539Z,0
2016-09-27T04:41:38.529Z,0
2016-09-27T04:42:38.510Z,0
2016-09-27T04:43:38.816Z,0
2016-09-27T04:44:38.495Z,0
2016-09-27T04:45:38.467Z,0
2016-09-27T04:46:38.663Z,0
2016-09-27T04:47:38.453Z,0
2016-09-27T04:48:39.052Z,0
2016-09-27T04:49:38.419Z,0
2016-09-27T04:50:38.400Z,0
2016-09-27T04:51:38.383Z,0
2016-09-27T04:52:38.380Z,0
2016-09-27T04:53:38.681Z,0
2016-09-27T04:54:38.344Z,0
2016-09-27T04:55:38.338Z,0
2016-09-27T04:56:38.335Z,0
2016-09-27T04:57:38.323Z,0
2016-09-27T04:58:38.608Z,0
2016-09-27T04:59:38.277Z,0
2016-09-27T05:00:38.265Z,0
2016-09-27T05:01:38.572Z,0
2016-09-27T05:02:38.250Z,0
2016-09-27T05:03:38.232Z,0
2016-09-27T05:04:38.211Z,0
2016-09-27T05:05:38.199Z,0
2016-09-27T05:06:38.190Z,0
2016-09-27T05:07:38.170Z,0
2016-09-27T05:08:38.155Z,0
2016-09-27T05:09:38.464Z,0
2016-09-27T05:10:38.131Z,0
2016-09-27T05:11:38.433Z,0
2016-09-27T05:12:38.102Z,0
2016-09-27T05:13:38.091Z,0
2016-09-27T05:14:38.075Z,0
2016-09-27T05:15:38.067Z,0
2016-09-27T05:16:38.043Z,0
2016-09-27T05:17:38.044Z,0
2016-09-27T05:18:38.656Z,0
2016-09-27T05:19:38.027Z,0
2016-09-27T05:20:37.992Z,0
2016-09-27T05:21:37.983Z,0
2016-09-27T05:22:37.966Z,0
2016-09-27T05:23:37.952Z,0
2016-09-27T05:24:38.578Z,0
2016-09-27T05:25:37.921Z,0
2016-09-27T05:26:37.916Z,5
2016-09-27T05:27:37.900Z,5
2016-09-27T05:28:37.890Z,5
2016-09-27T05:29:37.883Z,5
2016-09-27T05:30:37.859Z,5
2016-09-27T05:31:38.163Z,5
2016-09-27T05:32:37.830Z,5
2016-09-27T05:33:37.819Z,5
2016-09-27T05:34:37.811Z,5
2016-09-27T05:35:38.097Z,5
2016-09-27T05:36:38.091Z,10
2016-09-27T05:37:37.765Z,10
2016-09-27T05:38:37.753Z,10
2016-09-27T05:39:38.049Z,10
2016-09-27T05:40:37.734Z,10
2016-09-27T05:41:37.712Z,10
2016-09-27T05:42:37.714Z,10
2016-09-27T05:43:37.678Z,15
2016-09-27T05:44:37.669Z,15
2016-09-27T05:45:37.962Z,15
2016-09-27T05:46:37.632Z,15
2016-09-27T05:47:37.837Z,15
2016-09-27T05:48:37.634Z,15
2016-09-27T05:49:37.599Z,20
2016-09-27T05:50:37.903Z,20
2016-09-27T05:51:37.883Z,20
2016-09-27T05:52:38.191Z,20
2016-09-27T05:53:37.862Z,20
2016-09-27T05:54:37.550Z,20
2016-09-27T05:55:37.520Z,25
2016-09-27T05:56:37.528Z,25
2016-09-27T05:57:37.808Z,25
2016-09-27T05:58:37.479Z,25
2016-09-27T05:59:37.789Z,25
2016-09-27T06:00:37.454Z,25
2016-09-27T06:01:37.759Z,30
2016-09-27T06:02:37.419Z,30
2016-09-27T06:03:37.463Z,30
2016-09-27T06:04:37.723Z,30
2016-09-27T06:05:37.711Z,30
2016-09-27T06:06:37.709Z,30
2016-09-27T06:07:37.359Z,35
2016-09-27T06:08:37.419Z,35
2016-09-27T06:09:37.329Z,35
2016-09-27T06:10:37.310Z,35
2016-09-27T06:11:37.301Z,35
2016-09-27T06:12:37.293Z,35
2016-09-27T06:13:37.269Z,40
2016-09-27T06:14:37.273Z,40
2016-09-27T06:15:37.243Z,40
2016-09-27T06:16:37.224Z,40
2016-09-27T06:17:37.215Z,40
2016-09-27T06:18:37.831Z,40
2016-09-27T06:19:37.838Z,45
2016-09-27T06:20:37.175Z,45
2016-09-27T06:21:37.165Z,45
2016-09-27T06:22:37.776Z,45
2016-09-27T06:23:37.669Z,45
2016-09-27T06:24:37.452Z,45
2016-09-27T06:25:37.436Z,45
2016-09-27T06:26:37.417Z,45
2016-09-27T06:27:37.105Z,50
2016-09-27T06:28:37.695Z,50
2016-09-27T06:29:37.069Z,50
2016-09-27T06:30:37.364Z,50
2016-09-27T06:31:37.380Z,50
2016-09-27T06:32:37.343Z,50
2016-09-27T06:33:37.233Z,50
2016-09-27T06:34:37.933Z,55
2016-09-27T06:35:36.970Z,55
2016-09-27T06:36:36.971Z,55
2016-09-27T06:37:36.946Z,55
2016-09-27T06:38:36.937Z,55
2016-09-27T06:39:36.915Z,55
2016-09-27T06:40:36.903Z,55
2016-09-27T06:41:36.893Z,55
2016-09-27T06:42:36.887Z,60
2016-09-27T06:43:36.870Z,60
2016-09-27T06:44:36.855Z,60
2016-09-27T06:45:36.846Z,60
2016-09-27T06:46:37.350Z,60
2016-09-27T06:47:37.140Z,60
2016-09-27T06:48:36.822Z,60
2016-09-27T06:49:36.794Z,60
2016-09-27T06:50:37.427Z,60
2016-09-27T06:51:37.100Z,60
2016-09-27T06:52:37.407Z,60
2016-09-27T06:53:36.752Z,60
2016-09-27T06:54:36.743Z,60
2016-09-27T06:55:36.718Z,60
2016-09-27T06:56:36.706Z,60
2016-09-27T06:57:37.311Z,65
2016-09-27T06:58:37.302Z,65
2016-09-27T06:59:37.011Z,65
2016-09-27T07:00:36.647Z,65
2016-09-27T07:01:36.654Z,65
2016-09-27T07:02:36.621Z,65
2016-09-27T07:03:36.925Z,65
2016-09-27T07:04:36.922Z,65
2016-09-27T07:05:36.585Z,65
2016-09-27T07:06:36.883Z,65
2016-09-27T07:07:36.556Z,65
2016-09-27T07:08:36.572Z,70
2016-09-27T07:09:36.525Z,70
2016-09-27T07:10:36.521Z,70
2016-09-27T07:11:36.516Z,70
2016-09-27T07:12:36.497Z,70
2016-09-27T07:13:36.491Z,70
2016-09-27T07:14:37.173Z,70
2016-09-27T07:15:36.469Z,70
2016-09-27T07:16:36.769Z,70
2016-09-27T07:17:36.429Z,70
2016-09-27T07:18:36.423Z,70
2016-09-27T07:19:36.414Z,70
2016-09-27T07:20:36.718Z,70
2016-09-27T07:21:36.399Z,70
2016-09-27T07:22:36.695Z,70
2016-09-27T07:23:36.861Z,70
2016-09-27T07:24:36.667Z,75
2016-09-27T07:25:36.662Z,75
2016-09-27T07:26:36.676Z,75
2016-09-27T07:27:36.622Z,75
2016-09-27T07:28:36.305Z,75
2016-09-27T07:29:36.606Z,75
2016-09-27T07:30:36.618Z,75
2016-09-27T07:31:36.590Z,75
2016-09-27T07:32:36.594Z,75
2016-09-27T07:33:36.259Z,75
2016-09-27T07:34:36.241Z,75
2016-09-27T07:35:36.864Z,75
2016-09-27T07:36:36.527Z,75
2016-09-27T07:37:36.524Z,75
2016-09-27T07:38:36.192Z,75
2016-09-27T07:39:36.498Z,80
2016-09-27T07:40:36.481Z,80
2016-09-27T07:41:36.177Z,80
2016-09-27T07:42:36.135Z,80
2016-09-27T07:43:36.773Z,80
2016-09-27T07:44:36.107Z,80
2016-09-27T07:45:36.111Z,80
2016-09-27T07:46:36.091Z,80
2016-09-27T07:47:36.414Z,80
2016-09-27T07:48:36.704Z,85
2016-09-27T07:49:36.375Z,85
2016-09-27T07:50:36.053Z,85
2016-09-27T07:51:36.030Z,85
2016-09-27T07:52:37.001Z,85
2016-09-27T07:53:36.009Z,85
2016-09-27T07:54:35.998Z,85
2016-09-27T07:55:36.309Z,85
2016-09-27T07:56:36.514Z,90
2016-09-27T07:57:35.990Z,90
2016-09-27T07:58:35.948Z,90
2016-09-27T07:59:35.937Z,90
2016-09-27T08:00:36.243Z,90
2016-09-27T08:01:35.914Z,90
2016-09-27T08:02:35.916Z,90
2016-09-27T08:03:36.231Z,140
2016-09-27T08:04:35.883Z,190
2016-09-27T08:05:36.196Z,120
2016-09-27T08:06:35.870Z,90
2016-09-27T08:07:35.848Z,95
2016-09-27T08:08:36.169Z,95
2016-09-27T08:09:36.152Z,110
2016-09-27T08:10:36.128Z,100
2016-09-27T08:11:35.805Z,105
2016-09-27T08:12:35.798Z,95
2016-09-27T08:13:35.779Z,100
2016-09-27T08:14:35.764Z,100
2016-09-27T08:15:35.754Z,100
2016-09-27T08:16:35.743Z,95
2016-09-27T08:17:35.746Z,95
2016-09-27T08:18:36.035Z,95
2016-09-27T08:19:35.930Z,95
2016-09-27T08:20:35.712Z,95
2016-09-27T08:21:36.011Z,95
2016-09-27T08:22:35.679Z,95
2016-09-27T08:23:35.678Z,100
2016-09-27T08:24:35.668Z,100
2016-09-27T08:25:35.649Z,100
2016-09-27T08:26:35.676Z,100
2016-09-27T08:27:35.626Z,100
2016-09-27T08:28:35.618Z,100
2016-09-27T08:29:35.637Z,100
2016-09-27T08:30:35.969Z,100
2016-09-27T08:31:35.600Z,100
2016-09-27T08:32:35.585Z,100
2016-09-27T08:33:35.626Z,100
2016-09-27T08:34:35.586Z,100
2016-09-27T08:35:35.875Z,100
2016-09-27T08:36:35.854Z,100
2016-09-27T08:37:35.856Z,100
2016-09-27T08:38:35.862Z,100
2016-09-27T08:39:35.505Z,100
2016-09-27T08:40:36.147Z,100
2016-09-27T08:41:35.817Z,100
2016-09-27T08:42:35.470Z,100
2016-09-27T08:43:35.787Z,100
2016-09-27T08:44:35.461Z,100
2016-09-27T08:45:35.446Z,100
2016-09-27T08:46:35.953Z,100
2016-09-27T08:47:35.434Z,100
2016-09-27T08:48:35.757Z,100
2016-09-27T08:49:35.418Z,100
2016-09-27T08:50:35.721Z,105
2016-09-27T08:51:36.053Z,105
2016-09-27T08:52:35.398Z,105
2016-09-27T08:53:35.383Z,105
2016-09-27T08:54:35.888Z,105
2016-09-27T08:55:35.413Z,105
2016-09-27T08:56:35.345Z,105
2016-09-27T08:57:35.340Z,110
2016-09-27T08:58:35.318Z,110
2016-09-27T08:59:35.322Z,110
2016-09-27T09:00:35.311Z,110
2016-09-27T09:01:35.300Z,110
2016-09-27T09:02:35.601Z,110
2016-09-27T09:03:35.300Z,110
2016-09-27T09:04:35.267Z,115
2016-09-27T09:05:35.257Z,115
2016-09-27T09:06:35.868Z,115
2016-09-27T09:07:35.558Z,115
2016-09-27T09:08:35.542Z,115
2016-09-27T09:09:35.538Z,115
2016-09-27T09:10:35.226Z,115
2016-09-27T09:11:35.843Z,115
2016-09-27T09:12:35.197Z,115
2016-09-27T09:13:35.498Z,120
2016-09-27T09:14:35.796Z,120
2016-09-27T09:15:35.492Z,125
2016-09-27T09:16:35.804Z,120
2016-09-27T09:17:35.997Z,120
2016-09-27T09:18:35.483Z,125
2016-09-27T09:19:35.453Z,125
2016-09-27T09:20:35.124Z,125
2016-09-27T09:21:35.427Z,125
2016-09-27T09:22:35.106Z,125
2016-09-27T09:23:35.412Z,125
2016-09-27T09:24:35.411Z,130
2016-09-27T09:25:35.392Z,140
2016-09-27T09:26:35.380Z,140
2016-09-27T09:27:35.378Z,140
2016-09-27T09:28:35.376Z,125
2016-09-27T09:29:35.345Z,135
2016-09-27T09:30:35.097Z,170
2016-09-27T09:31:35.088Z,150
2016-09-27T09:32:35.016Z,130
2016-09-27T09:33:35.008Z,135
2016-09-27T09:34:35.000Z,130
2016-09-27T09:35:35.308Z,130
2016-09-27T09:36:34.974Z,130
2016-09-27T09:37:34.971Z,140
2016-09-27T09:38:34.997Z,135
2016-09-27T09:39:34.956Z,135
2016-09-27T09:40:34.944Z,135
2016-09-27T09:41:35.032Z,135
2016-09-27T09:42:35.237Z,135
2016-09-27T09:43:34.924Z,135
2016-09-27T09:44:34.903Z,135
2016-09-27T09:45:35.220Z,135
2016-09-27T09:46:35.210Z,140
2016-09-27T09:47:34.882Z,140
2016-09-27T09:48:34.873Z,140
2016-09-27T09:49:35.184Z,140
2016-09-27T09:50:34.849Z,140
2016-09-27T09:51:35.166Z,150
2016-09-27T09:52:35.155Z,150
2016-09-27T09:53:34.838Z,145
2016-09-27T09:54:35.144Z,145
2016-09-27T09:55:34.817Z,145
2016-09-27T09:56:34.816Z,145
2016-09-27T09:57:34.803Z,155
2016-09-27T09:58:35.115Z,180
2016-09-27T09:59:35.429Z,240
2016-09-27T10:00:34.786Z,180
2016-09-27T10:01:34.822Z,150
2016-09-27T10:02:34.761Z,150
2016-09-27T10:03:35.071Z,150
2016-09-27T10:04:34.750Z,150
2016-09-27T10:05:35.058Z,150
2016-09-27T10:06:35.040Z,150
2016-09-27T10:07:34.720Z,150
2016-09-27T10:08:34.712Z,150
2016-09-27T10:09:34.701Z,155
2016-09-27T10:10:34.691Z,155
2016-09-27T10:11:35.019Z,150
2016-09-27T10:12:34.679Z,160
2016-09-27T10:13:35.314Z,155
2016-09-27T10:14:34.979Z,170
2016-09-27T10:15:34.659Z,200
2016-09-27T10:16:34.951Z,150
2016-09-27T10:17:34.635Z,150
2016-09-27T10:18:34.635Z,150
2016-09-27T10:19:35.257Z,155
2016-09-27T10:20:34.618Z,155
2016-09-27T10:21:34.608Z,155
2016-09-27T10:22:34.607Z,165
2016-09-27T10:23:34.599Z,215
2016-09-27T10:24:34.589Z,225
2016-09-27T10:25:34.578Z,240
2016-09-27T10:26:34.576Z,160
2016-09-27T10:27:34.568Z,170
2016-09-27T10:28:34.553Z,175
2016-09-27T10:29:34.550Z,170
2016-09-27T10:30:34.860Z,175
2016-09-27T10:31:34.529Z,175
2016-09-27T10:32:34.531Z,180
2016-09-27T10:33:35.163Z,185
2016-09-27T10:34:34.509Z,200
2016-09-27T10:35:34.501Z,205
2016-09-27T10:36:34.495Z,250
2016-09-27T10:37:34.812Z,230
2016-09-27T10:38:34.564Z,185
2016-09-27T10:39:34.693Z,180
2016-09-27T10:40:34.821Z,185
2016-09-27T10:41:35.104Z,190
2016-09-27T10:42:34.471Z,200
2016-09-27T10:43:35.092Z,225
2016-09-27T10:44:34.778Z,195
2016-09-27T10:45:34.439Z,195
2016-09-27T10:46:35.039Z,205
2016-09-27T10:47:35.066Z,260
2016-09-27T10:48:34.492Z,285
2016-09-27T10:49:34.718Z,215
2016-09-27T10:50:35.046Z,215
2016-09-27T10:51:34.467Z,210
2016-09-27T10:52:34.730Z,215
2016-09-27T10:53:34.728Z,220
2016-09-27T10:54:34.384Z,235
2016-09-27T10:55:35.015Z,275
2016-09-27T10:56:35.006Z,240
2016-09-27T10:57:34.993Z,250
2016-09-27T10:58:34.978Z,260
2016-09-27T10:59:34.350Z,235
2016-09-27T11:00:34.648Z,240
2016-09-27T11:01:35.321Z,245
2016-09-27T11:02:34.320Z,245
2016-09-27T11:03:34.343Z,260
2016-09-27T11:04:34.339Z,235
2016-09-27T11:05:34.633Z,240
2016-09-27T11:06:34.331Z,240
2016-09-27T11:07:34.288Z,250
2016-09-27T11:08:34.635Z,255
2016-09-27T11:09:34.278Z,245
2016-09-27T11:10:34.274Z,245
2016-09-27T11:11:34.260Z,250
2016-09-27T11:12:34.261Z,265
2016-09-27T11:13:34.250Z,265
2016-09-27T11:14:34.559Z,270
2016-09-27T11:15:34.560Z,275
2016-09-27T11:16:34.228Z,275
2016-09-27T11:17:34.553Z,285
2016-09-27T11:18:34.539Z,360
2016-09-27T11:19:34.216Z,335
2016-09-27T11:20:34.210Z,290
2016-09-27T11:21:34.209Z,285
2016-09-27T11:22:34.194Z,285
2016-09-27T11:23:34.191Z,395
2016-09-27T11:24:34.200Z,610
2016-09-27T11:25:34.185Z,870
2016-09-27T11:26:34.198Z,975
2016-09-27T11:27:34.180Z,965
2016-09-27T11:28:34.793Z,645
2016-09-27T11:29:34.791Z,450
2016-09-27T11:30:34.159Z,340
2016-09-27T11:31:34.154Z,355
2016-09-27T11:32:34.776Z,400
2016-09-27T11:33:34.461Z,490
2016-09-27T11:34:34.155Z,700
2016-09-27T11:35:34.458Z,760
2016-09-27T11:36:34.132Z,615
2016-09-27T11:37:34.130Z,610
2016-09-27T11:38:34.118Z,745
2016-09-27T11:39:34.335Z,930
2016-09-27T11:40:34.741Z,765
2016-09-27T11:41:34.748Z,680
2016-09-27T11:42:34.734Z,690
2016-09-27T11:43:34.423Z,725
2016-09-27T11:44:34.107Z,575
2016-09-27T11:46:34.410Z,520
2016-09-27T11:47:34.092Z,730
2016-09-27T11:48:34.113Z,725
2016-09-27T11:49:34.087Z,1070
2016-09-27T11:50:34.398Z,1355
2016-09-27T11:51:34.074Z,1420
2016-09-27T11:52:34.076Z,1465
2016-09-27T11:53:34.076Z,1450
2016-09-27T11:54:34.074Z,1440
2016-09-27T11:55:34.721Z,1430
2016-09-27T11:56:34.380Z,1415
2016-09-27T11:57:34.064Z,1445
2016-09-27T11:58:34.065Z,1445
2016-09-27T11:59:34.078Z,1475
2016-09-27T12:00:34.063Z,1470
2016-09-27T12:01:34.077Z,1425
2016-09-27T12:02:34.062Z,1450
2016-09-27T12:03:34.381Z,1485
2016-09-27T12:04:34.071Z,1490
2016-09-27T12:05:34.381Z,1525
2016-09-27T12:06:34.377Z,1535
2016-09-27T12:07:34.701Z,1510
2016-09-27T12:08:34.069Z,1510
2016-09-27T12:09:34.694Z,1540
2016-09-27T12:10:34.074Z,1520
2016-09-27T12:11:34.075Z,1530
2016-09-27T12:12:34.078Z,1565
2016-09-27T12:13:34.704Z,1580
2016-09-27T12:14:34.092Z,1570
2016-09-27T12:15:34.087Z,1555
2016-09-27T12:16:34.402Z,1515
2016-09-27T12:17:34.395Z,1510
2016-09-27T12:18:34.090Z,1530
2016-09-27T12:19:34.397Z,1555
2016-09-27T12:20:34.097Z,1535
2016-09-27T12:21:34.095Z,1540
2016-09-27T12:22:34.447Z,1520
2016-09-27T12:23:34.439Z,1525
2016-09-27T12:24:34.107Z,1570
2016-09-27T12:25:35.068Z,1630
2016-09-27T12:26:34.453Z,1580
2016-09-27T12:27:34.434Z,1475
2016-09-27T12:28:34.474Z,1480
2016-09-27T12:29:34.127Z,1500
2016-09-27T12:30:34.458Z,1510
2016-09-27T12:31:34.450Z,1485
2016-09-27T12:32:34.194Z,1515
2016-09-27T12:33:34.133Z,1540
2016-09-27T12:34:34.775Z,1550
2016-09-27T12:35:34.137Z,1525
2016-09-27T12:36:34.167Z,1455
2016-09-27T12:37:34.460Z,1445
2016-09-27T12:38:34.141Z,1435
2016-09-27T12:39:34.472Z,1475
2016-09-27T12:40:34.163Z,1470
2016-09-27T12:41:34.180Z,1500
2016-09-27T12:42:34.174Z,1470
2016-09-27T12:43:34.163Z,1490
2016-09-27T12:44:34.174Z,1515
2016-09-27T12:45:34.176Z,1480
2016-09-27T12:46:34.685Z,1475
2016-09-27T12:47:34.182Z,1455
2016-09-27T12:48:34.483Z,1445
2016-09-27T12:49:34.500Z,1460
2016-09-27T12:50:34.503Z,1485
2016-09-27T12:51:34.176Z,1455
2016-09-27T12:52:34.577Z,1495
2016-09-27T12:53:34.181Z,1550
2016-09-27T12:54:34.339Z,1520
2016-09-27T12:55:34.220Z,1500
2016-09-27T12:56:34.197Z,1445
2016-09-27T12:57:34.205Z,1400
2016-09-27T12:58:34.515Z,1410
2016-09-27T12:59:34.527Z,1415
2016-09-27T13:00:34.218Z,1410
2016-09-27T13:01:34.525Z,1400
2016-09-27T13:02:34.847Z,1385
2016-09-27T13:03:34.544Z,1345
2016-09-27T13:04:34.261Z,1370
2016-09-27T13:05:34.239Z,1425
2016-09-27T13:06:34.549Z,1465
2016-09-27T13:07:34.261Z,1405
2016-09-27T13:08:34.563Z,1315
2016-09-27T13:09:34.560Z,770
2016-09-27T13:10:34.451Z,1205
2016-09-27T13:11:34.560Z,1265
2016-09-27T13:12:34.578Z,1265
2016-09-27T13:13:34.253Z,1305
2016-09-27T13:14:34.574Z,1280
2016-09-27T13:15:34.572Z,1320
2016-09-27T13:16:34.259Z,1345
2016-09-27T13:17:34.258Z,1200
2016-09-27T13:18:34.584Z,375
2016-09-27T13:19:34.271Z,1220
2016-09-27T13:20:34.904Z,1095
2016-09-27T13:21:34.275Z,1155
2016-09-27T13:22:34.584Z,1190
2016-09-27T13:23:34.594Z,1175
2016-09-27T13:24:34.602Z,1185
2016-09-27T13:25:34.597Z,1210
2016-09-27T13:26:34.932Z,1225
2016-09-27T13:27:34.650Z,1245
2016-09-27T13:28:35.229Z,1230
2016-09-27T13:29:34.286Z,1255
2016-09-27T13:30:34.300Z,1245
2016-09-27T13:31:34.606Z,1170
2016-09-27T13:32:34.941Z,1125
2016-09-27T13:33:34.603Z,1165
2016-09-27T13:34:34.611Z,295
2016-09-27T13:35:34.301Z,265
2016-09-27T13:36:34.301Z,1135
2016-09-27T13:37:34.620Z,1155
2016-09-27T13:38:34.314Z,1150
2016-09-27T13:39:34.618Z,1155
2016-09-27T13:40:34.307Z,1135
2016-09-27T13:41:34.961Z,1120
2016-09-27T13:42:34.634Z,1055
2016-09-27T13:43:34.629Z,1125
2016-09-27T13:44:34.643Z,620
2016-09-27T13:45:34.315Z,445
2016-09-27T13:46:34.645Z,310
2016-09-27T13:47:34.337Z,955
2016-09-27T13:48:34.672Z,1010
2016-09-27T13:49:34.326Z,1040
2016-09-27T13:50:34.852Z,1020
2016-09-27T13:51:34.545Z,1090
2016-09-27T13:52:34.655Z,1075
2016-09-27T13:53:34.325Z,1095
2016-09-27T13:54:34.343Z,1070
2016-09-27T13:55:34.349Z,1040
2016-09-27T13:56:34.329Z,1000
2016-09-27T13:57:34.327Z,1055
2016-09-27T13:58:34.344Z,1065
2016-09-27T13:59:34.352Z,1050
2016-09-27T14:00:34.679Z,960
2016-09-27T14:01:34.656Z,1095
2016-09-27T14:02:34.350Z,1025
2016-09-27T14:03:34.657Z,975
2016-09-27T14:04:34.667Z,870
2016-09-27T14:05:34.349Z,930
2016-09-27T14:06:34.666Z,905
2016-09-27T14:07:34.355Z,850
2016-09-27T14:08:34.353Z,920
2016-09-27T14:09:34.356Z,900
2016-09-27T14:10:34.698Z,775
2016-09-27T14:11:34.671Z,870